createdAt,value
2017-09-07T00:00:48.090Z,0
2017-09-07T00:01:48.339Z,0
2017-09-07T00:02:48.020Z,0
2017-09-07T00:03:48.100Z,0
2017-09-07T00:04:48.026Z,0
2017-09-07T00:05:48.280Z,0
2017-09-07T00:06:48.569Z,0
2017-09-07T00:07:48.239Z,0
2017-09-07T00:08:47.920Z,0
2017-09-07T00:09:48.188Z,0
2017-09-07T00:10:48.187Z,0
2017-09-07T00:11:48.177Z,0
2017-09-07T00:12:48.443Z,0
2017-09-07T00:13:48.120Z,0
2017-09-07T00:14:47.809Z,0
2017-09-07T00:15:48.461Z,0
2017-09-07T00:16:48.122Z,0
2017-09-07T00:17:48.062Z,0
2017-09-07T00:18:47.711Z,0
2017-09-07T00:19:47.713Z,0
2017-09-07T00:20:47.999Z,0
2017-09-07T00:21:48.071Z,0
2017-09-07T00:22:48.022Z,0
2017-09-07T00:23:48.287Z,0
2017-09-07T00:24:47.959Z,0
2017-09-07T00:25:48.233Z,0
2017-09-07T00:26:47.906Z,0
2017-09-07T00:27:48.218Z,0
2017-09-07T00:28:47.870Z,0
2017-09-07T00:29:47.550Z,0
2017-09-07T00:30:47.545Z,0
2017-09-07T00:31:47.820Z,0
2017-09-07T00:32:48.107Z,0
2017-09-07T00:33:47.872Z,0
2017-09-07T00:34:48.068Z,0
2017-09-07T00:35:48.089Z,0
2017-09-07T00:36:47.706Z,0
2017-09-07T00:37:47.697Z,0
2017-09-07T00:38:47.990Z,0
2017-09-07T00:39:47.671Z,0
2017-09-07T00:40:47.367Z,0
2017-09-07T00:41:47.937Z,0
2017-09-07T00:42:48.009Z,0
2017-09-07T00:43:47.927Z,0
2017-09-07T00:44:47.919Z,0
2017-09-07T00:45:47.558Z,0
2017-09-07T00:46:47.851Z,0
2017-09-07T00:47:47.534Z,0
2017-09-07T00:48:47.508Z,0
2017-09-07T00:49:46.866Z,0
2017-09-07T00:50:47.178Z,0
2017-09-07T00:51:47.767Z,0
2017-09-07T00:52:46.809Z,0
2017-09-07T00:53:47.433Z,0
2017-09-07T00:54:47.439Z,0
2017-09-07T00:55:47.368Z,0
2017-09-07T00:56:47.078Z,0
2017-09-07T00:57:47.351Z,0
2017-09-07T00:58:47.691Z,0
2017-09-07T00:59:47.306Z,0
2017-09-07T01:00:47.310Z,0
2017-09-07T01:01:46.948Z,0
2017-09-07T01:02:47.599Z,0
2017-09-07T01:03:47.534Z,0
2017-09-07T01:04:47.540Z,0
2017-09-07T01:05:47.539Z,0
2017-09-07T01:06:46.264Z,0
2017-09-07T01:07:47.526Z,0
2017-09-07T01:08:46.950Z,0
2017-09-07T01:09:47.490Z,0
2017-09-07T01:10:47.129Z,0
2017-09-07T01:11:47.422Z,0
2017-09-07T01:12:46.983Z,0
2017-09-07T01:13:46.755Z,0
2017-09-07T01:14:46.473Z,0
2017-09-07T01:15:46.713Z,0
2017-09-07T01:16:46.982Z,0
2017-09-07T01:17:46.992Z,0
2017-09-07T01:18:46.379Z,0
2017-09-07T01:19:46.951Z,0
2017-09-07T01:20:46.949Z,0
2017-09-07T01:21:46.619Z,0
2017-09-07T01:22:46.906Z,0
2017-09-07T01:23:46.886Z,0
2017-09-07T01:24:46.864Z,0
2017-09-07T01:25:47.171Z,0
2017-09-07T01:26:46.507Z,0
2017-09-07T01:27:46.729Z,0
2017-09-07T01:28:46.804Z,0
2017-09-07T01:29:46.498Z,0
2017-09-07T01:30:47.072Z,0
2017-09-07T01:31:47.057Z,0
2017-09-07T01:32:46.440Z,0
2017-09-07T01:33:46.108Z,0
2017-09-07T01:34:47.011Z,0
2017-09-07T01:35:47.009Z,0
2017-09-07T01:36:47.008Z,0
2017-09-07T01:37:46.324Z,0
2017-09-07T01:38:46.842Z,0
2017-09-07T01:39:46.599Z,0
2017-09-07T01:40:46.585Z,0
2017-09-07T01:41:46.566Z,0
2017-09-07T01:42:46.259Z,0
2017-09-07T01:43:46.540Z,0
2017-09-07T01:44:45.909Z,0
2017-09-07T01:45:46.832Z,0
2017-09-07T01:46:46.198Z,0
2017-09-07T01:47:45.605Z,0
2017-09-07T01:48:46.449Z,0
2017-09-07T01:49:46.130Z,0
2017-09-07T01:50:46.712Z,0
2017-09-07T01:51:46.729Z,0
2017-09-07T01:52:46.378Z,0
2017-09-07T01:53:46.390Z,0
2017-09-07T01:54:46.141Z,0
2017-09-07T01:55:46.334Z,0
2017-09-07T01:56:46.612Z,0
2017-09-07T01:57:46.411Z,0
2017-09-07T01:58:46.011Z,0
2017-09-07T01:59:45.632Z,0
2017-09-07T02:00:46.562Z,0
2017-09-07T02:01:46.037Z,0
2017-09-07T02:02:45.889Z,0
2017-09-07T02:03:45.948Z,0
2017-09-07T02:04:45.550Z,0
2017-09-07T02:05:46.162Z,0
2017-09-07T02:06:45.820Z,0
2017-09-07T02:07:46.452Z,0
2017-09-07T02:08:46.139Z,0
2017-09-07T02:09:46.134Z,0
2017-09-07T02:10:46.125Z,0
2017-09-07T02:11:45.729Z,0
2017-09-07T02:12:45.730Z,0
2017-09-07T02:13:45.708Z,0
2017-09-07T02:14:45.667Z,0
2017-09-07T02:15:46.280Z,0
2017-09-07T02:16:45.959Z,0
2017-09-07T02:17:45.949Z,0
2017-09-07T02:18:45.595Z,0
2017-09-07T02:19:45.620Z,0
2017-09-07T02:20:46.000Z,0
2017-09-07T02:21:45.564Z,0
2017-09-07T02:22:45.542Z,0
2017-09-07T02:23:45.840Z,0
2017-09-07T02:24:45.510Z,0
2017-09-07T02:25:45.510Z,0
2017-09-07T02:26:45.792Z,0
2017-09-07T02:27:45.770Z,0
2017-09-07T02:28:45.735Z,0
2017-09-07T02:29:45.410Z,0
2017-09-07T02:30:46.009Z,0
2017-09-07T02:31:45.710Z,0
2017-09-07T02:32:45.809Z,0
2017-09-07T02:33:45.715Z,0
2017-09-07T02:34:45.713Z,0
2017-09-07T02:35:45.939Z,0
2017-09-07T02:36:45.302Z,0
2017-09-07T02:37:45.663Z,0
2017-09-07T02:38:45.598Z,0
2017-09-07T02:39:45.617Z,0
2017-09-07T02:40:45.559Z,0
2017-09-07T02:41:45.831Z,0
2017-09-07T02:42:45.819Z,0
2017-09-07T02:43:45.475Z,0
2017-09-07T02:44:45.790Z,0
2017-09-07T02:45:45.750Z,0
2017-09-07T02:46:45.729Z,0
2017-09-07T02:47:45.094Z,0
2017-09-07T02:48:45.729Z,0
2017-09-07T02:49:45.700Z,0
2017-09-07T02:50:45.060Z,0
2017-09-07T02:51:45.343Z,0
2017-09-07T02:52:45.640Z,0
2017-09-07T02:53:45.673Z,0
2017-09-07T02:54:45.599Z,0
2017-09-07T02:55:45.569Z,0
2017-09-07T02:56:45.563Z,0
2017-09-07T02:57:45.231Z,0
2017-09-07T02:58:45.206Z,0
2017-09-07T02:59:45.192Z,0
2017-09-07T03:00:45.191Z,0
2017-09-07T03:01:45.159Z,0
2017-09-07T03:02:45.190Z,0
2017-09-07T03:03:45.125Z,0
2017-09-07T03:04:45.109Z,0
2017-09-07T03:05:44.260Z,0
2017-09-07T03:06:44.860Z,0
2017-09-07T03:07:45.441Z,0
2017-09-07T03:08:45.351Z,0
2017-09-07T03:09:45.020Z,0
2017-09-07T03:10:44.380Z,0
2017-09-07T03:11:45.309Z,0
2017-09-07T03:12:44.967Z,0
2017-09-07T03:13:44.952Z,0
2017-09-07T03:14:45.261Z,0
2017-09-07T03:15:44.588Z,0
2017-09-07T03:16:44.890Z,0
2017-09-07T03:17:45.197Z,0
2017-09-07T03:18:44.861Z,0
2017-09-07T03:19:44.667Z,0
2017-09-07T03:20:44.610Z,0
2017-09-07T03:21:44.579Z,0
2017-09-07T03:22:45.089Z,0
2017-09-07T03:23:44.791Z,0
2017-09-07T03:24:44.862Z,0
2017-09-07T03:25:44.473Z,0
2017-09-07T03:26:45.263Z,0
2017-09-07T03:27:44.379Z,0
2017-09-07T03:28:44.063Z,0
2017-09-07T03:29:45.105Z,0
2017-09-07T03:30:44.416Z,0
2017-09-07T03:31:44.944Z,0
2017-09-07T03:32:44.319Z,0
2017-09-07T03:33:44.269Z,0
2017-09-07T03:34:44.901Z,0
2017-09-07T03:35:44.242Z,0
2017-09-07T03:36:44.542Z,0
2017-09-07T03:37:44.881Z,0
2017-09-07T03:38:44.511Z,0
2017-09-07T03:39:44.487Z,0
2017-09-07T03:40:44.509Z,0
2017-09-07T03:41:44.450Z,0
2017-09-07T03:42:44.437Z,0
2017-09-07T03:43:44.438Z,0
2017-09-07T03:44:44.082Z,0
2017-09-07T03:45:44.061Z,0
2017-09-07T03:46:44.040Z,0
2017-09-07T03:47:43.730Z,0
2017-09-07T03:48:44.389Z,0
2017-09-07T03:49:44.680Z,0
2017-09-07T03:50:44.779Z,0
2017-09-07T03:51:43.343Z,0
2017-09-07T03:52:44.632Z,0
2017-09-07T03:53:44.236Z,0
2017-09-07T03:54:44.559Z,0
2017-09-07T03:55:44.213Z,0
2017-09-07T03:56:43.859Z,0
2017-09-07T03:57:44.568Z,0
2017-09-07T03:58:44.201Z,0
2017-09-07T03:59:44.147Z,0
2017-09-07T04:00:43.484Z,0
2017-09-07T04:01:43.468Z,0
2017-09-07T04:02:44.506Z,0
2017-09-07T04:03:43.735Z,0
2017-09-07T04:04:44.039Z,0
2017-09-07T04:05:44.149Z,0
2017-09-07T04:06:44.310Z,0
2017-09-07T04:07:44.310Z,0
2017-09-07T04:08:44.070Z,0
2017-09-07T04:09:43.317Z,0
2017-09-07T04:10:43.999Z,0
2017-09-07T04:11:43.606Z,0
2017-09-07T04:12:43.894Z,0
2017-09-07T04:13:43.893Z,0
2017-09-07T04:14:43.857Z,0
2017-09-07T04:15:44.170Z,0
2017-09-07T04:16:43.819Z,0
2017-09-07T04:17:44.102Z,0
2017-09-07T04:18:43.459Z,0
2017-09-07T04:19:43.486Z,0
2017-09-07T04:20:43.423Z,0
2017-09-07T04:21:43.412Z,0
2017-09-07T04:22:43.737Z,0
2017-09-07T04:23:43.689Z,0
2017-09-07T04:24:43.697Z,0
2017-09-07T04:25:43.340Z,0
2017-09-07T04:26:43.419Z,0
2017-09-07T04:27:43.298Z,0
2017-09-07T04:28:42.679Z,0
2017-09-07T04:29:43.297Z,0
2017-09-07T04:30:43.568Z,0
2017-09-07T04:31:43.270Z,0
2017-09-07T04:32:42.969Z,0
2017-09-07T04:33:43.230Z,0
2017-09-07T04:34:43.529Z,0
2017-09-07T04:35:43.469Z,0
2017-09-07T04:36:43.519Z,0
2017-09-07T04:37:43.463Z,0
2017-09-07T04:38:43.111Z,0
2017-09-07T04:39:43.718Z,0
2017-09-07T04:40:43.389Z,0
2017-09-07T04:41:43.330Z,0
2017-09-07T04:42:43.361Z,0
2017-09-07T04:43:43.331Z,0
2017-09-07T04:44:43.390Z,0
2017-09-07T04:45:43.310Z,0
2017-09-07T04:46:43.714Z,0
2017-09-07T04:47:43.589Z,0
2017-09-07T04:48:43.236Z,0
2017-09-07T04:49:43.293Z,0
2017-09-07T04:50:43.238Z,0
2017-09-07T04:51:43.500Z,0
2017-09-07T04:52:43.179Z,0
2017-09-07T04:53:43.173Z,0
2017-09-07T04:54:43.180Z,0
2017-09-07T04:55:43.128Z,0
2017-09-07T04:56:43.484Z,0
2017-09-07T04:57:43.399Z,0
2017-09-07T04:58:43.081Z,0
2017-09-07T04:59:43.141Z,0
2017-09-07T05:00:43.358Z,0
2017-09-07T05:01:43.031Z,5
2017-09-07T05:02:42.692Z,5
2017-09-07T05:03:43.331Z,5
2017-09-07T05:04:43.009Z,5
2017-09-07T05:05:43.312Z,5
2017-09-07T05:06:43.342Z,5
2017-09-07T05:07:42.655Z,5
2017-09-07T05:08:42.890Z,5
2017-09-07T05:09:43.202Z,5
2017-09-07T05:10:43.180Z,5
2017-09-07T05:11:43.163Z,5
2017-09-07T05:12:43.247Z,5
2017-09-07T05:13:43.116Z,5
2017-09-07T05:14:43.122Z,10
2017-09-07T05:15:42.769Z,10
2017-09-07T05:16:42.763Z,10
2017-09-07T05:17:42.790Z,10
2017-09-07T05:18:43.081Z,10
2017-09-07T05:19:42.075Z,10
2017-09-07T05:20:42.360Z,10
2017-09-07T05:21:42.647Z,10
2017-09-07T05:22:42.065Z,10
2017-09-07T05:23:42.931Z,10
2017-09-07T05:24:42.606Z,10
2017-09-07T05:25:42.580Z,15
2017-09-07T05:26:42.269Z,15
2017-09-07T05:27:42.553Z,15
2017-09-07T05:28:42.021Z,15
2017-09-07T05:29:42.530Z,15
2017-09-07T05:30:42.283Z,15
2017-09-07T05:31:42.863Z,15
2017-09-07T05:32:42.461Z,15
2017-09-07T05:33:42.766Z,15
2017-09-07T05:34:42.843Z,10
2017-09-07T05:35:42.721Z,10
2017-09-07T05:36:41.887Z,10
2017-09-07T05:37:42.071Z,10
2017-09-07T05:38:42.668Z,15
2017-09-07T05:39:42.029Z,15
2017-09-07T05:40:42.328Z,15
2017-09-07T05:41:42.312Z,15
2017-09-07T05:42:42.609Z,15
2017-09-07T05:43:42.648Z,15
2017-09-07T05:44:42.656Z,15
2017-09-07T05:45:41.619Z,15
2017-09-07T05:46:41.898Z,15
2017-09-07T05:47:41.580Z,15
2017-09-07T05:48:42.187Z,15
2017-09-07T05:49:42.164Z,15
2017-09-07T05:50:42.150Z,15
2017-09-07T05:51:41.964Z,15
2017-09-07T05:52:42.108Z,15
2017-09-07T05:53:42.099Z,15
2017-09-07T05:54:42.410Z,15
2017-09-07T05:55:42.391Z,15
2017-09-07T05:56:42.068Z,15
2017-09-07T05:57:42.393Z,15
2017-09-07T05:58:42.016Z,15
2017-09-07T05:59:42.053Z,20
2017-09-07T06:00:41.972Z,20
2017-09-07T06:01:41.967Z,20
2017-09-07T06:02:41.622Z,20
2017-09-07T06:03:41.305Z,20
2017-09-07T06:04:42.230Z,20
2017-09-07T06:05:41.890Z,25
2017-09-07T06:06:42.167Z,25
2017-09-07T06:07:41.872Z,25
2017-09-07T06:08:42.147Z,30
2017-09-07T06:09:41.816Z,30
2017-09-07T06:10:42.180Z,30
2017-09-07T06:11:41.786Z,35
2017-09-07T06:12:41.134Z,35
2017-09-07T06:13:41.130Z,35
2017-09-07T06:14:41.725Z,35
2017-09-07T06:15:41.400Z,40
2017-09-07T06:16:41.073Z,45
2017-09-07T06:17:41.350Z,45
2017-09-07T06:18:41.980Z,50
2017-09-07T06:19:41.947Z,50
2017-09-07T06:20:41.647Z,50
2017-09-07T06:21:41.630Z,55
2017-09-07T06:22:41.910Z,55
2017-09-07T06:23:41.904Z,60
2017-09-07T06:24:41.261Z,60
2017-09-07T06:25:41.832Z,55
2017-09-07T06:26:40.904Z,50
2017-09-07T06:27:41.882Z,45
2017-09-07T06:28:41.499Z,45
2017-09-07T06:29:41.783Z,40
2017-09-07T06:30:41.144Z,40
2017-09-07T06:31:41.758Z,40
2017-09-07T06:32:41.719Z,45
2017-09-07T06:33:41.400Z,45
2017-09-07T06:34:41.728Z,45
2017-09-07T06:35:41.366Z,45
2017-09-07T06:36:41.014Z,50
2017-09-07T06:37:41.010Z,50
2017-09-07T06:38:40.993Z,50
2017-09-07T06:39:41.122Z,50
2017-09-07T06:40:41.261Z,55
2017-09-07T06:41:41.256Z,55
2017-09-07T06:42:41.231Z,50
2017-09-07T06:43:41.218Z,50
2017-09-07T06:44:40.900Z,50
2017-09-07T06:45:40.573Z,55
2017-09-07T06:46:41.160Z,55
2017-09-07T06:47:41.462Z,50
2017-09-07T06:48:41.430Z,45
2017-09-07T06:49:41.108Z,45
2017-09-07T06:50:40.790Z,45
2017-09-07T06:51:40.769Z,45
2017-09-07T06:52:40.451Z,50
2017-09-07T06:53:41.367Z,50
2017-09-07T06:54:40.716Z,50
2017-09-07T06:55:41.029Z,50
2017-09-07T06:56:40.683Z,55
2017-09-07T06:57:40.979Z,60
2017-09-07T06:58:41.060Z,55
2017-09-07T06:59:40.961Z,55
2017-09-07T07:00:40.939Z,60
2017-09-07T07:01:41.211Z,65
2017-09-07T07:02:40.882Z,65
2017-09-07T07:03:41.035Z,65
2017-09-07T07:04:40.551Z,70
2017-09-07T07:05:41.176Z,65
2017-09-07T07:06:40.619Z,60
2017-09-07T07:07:41.139Z,60
2017-09-07T07:08:41.135Z,55
2017-09-07T07:09:41.091Z,55
2017-09-07T07:10:40.511Z,55
2017-09-07T07:11:40.841Z,65
2017-09-07T07:12:41.040Z,70
2017-09-07T07:13:40.722Z,75
2017-09-07T07:14:40.975Z,90
2017-09-07T07:15:40.997Z,100
2017-09-07T07:16:40.974Z,110
2017-09-07T07:17:40.974Z,110
2017-09-07T07:18:40.923Z,95
2017-09-07T07:19:40.678Z,90
2017-09-07T07:20:40.284Z,95
2017-09-07T07:21:40.914Z,95
2017-09-07T07:22:40.894Z,95
2017-09-07T07:23:40.872Z,90
2017-09-07T07:24:40.545Z,95
2017-09-07T07:25:40.824Z,100
2017-09-07T07:26:40.507Z,105
2017-09-07T07:27:40.801Z,115
2017-09-07T07:28:40.788Z,120
2017-09-07T07:29:40.753Z,135
2017-09-07T07:30:40.719Z,155
2017-09-07T07:31:40.469Z,160
2017-09-07T07:32:40.502Z,180
2017-09-07T07:33:40.378Z,200
2017-09-07T07:34:40.375Z,180
2017-09-07T07:35:40.406Z,145
2017-09-07T07:36:40.660Z,125
2017-09-07T07:37:40.609Z,105
2017-09-07T07:38:39.663Z,95
2017-09-07T07:39:40.569Z,85
2017-09-07T07:40:40.587Z,75
2017-09-07T07:41:39.612Z,75
2017-09-07T07:42:40.542Z,70
2017-09-07T07:43:39.889Z,70
2017-09-07T07:44:40.223Z,65
2017-09-07T07:45:40.479Z,65
2017-09-07T07:46:40.198Z,60
2017-09-07T07:47:40.142Z,55
2017-09-07T07:48:39.830Z,55
2017-09-07T07:49:40.100Z,55
2017-09-07T07:50:40.400Z,60
2017-09-07T07:51:40.088Z,60
2017-09-07T07:52:40.369Z,60
2017-09-07T07:53:40.345Z,60
2017-09-07T07:54:40.320Z,60
2017-09-07T07:55:40.071Z,60
2017-09-07T07:56:40.142Z,60
2017-09-07T07:57:40.408Z,65
2017-09-07T07:58:39.975Z,65
2017-09-07T07:59:39.629Z,70
2017-09-07T08:00:39.601Z,70
2017-09-07T08:01:40.432Z,70
2017-09-07T08:02:39.909Z,75
2017-09-07T08:03:39.570Z,70
2017-09-07T08:04:39.863Z,70
2017-09-07T08:05:40.320Z,65
2017-09-07T08:06:39.516Z,65
2017-09-07T08:07:39.508Z,60
2017-09-07T08:08:39.480Z,60
2017-09-07T08:09:39.770Z,65
2017-09-07T08:10:40.096Z,70
2017-09-07T08:11:40.273Z,70
2017-09-07T08:12:39.743Z,75
2017-09-07T08:13:40.260Z,75
2017-09-07T08:14:39.712Z,75
2017-09-07T08:15:39.682Z,75
2017-09-07T08:16:39.649Z,75
2017-09-07T08:17:39.339Z,80
2017-09-07T08:18:39.625Z,90
2017-09-07T08:19:39.399Z,100
2017-09-07T08:20:39.710Z,115
2017-09-07T08:21:39.670Z,130
2017-09-07T08:22:39.580Z,165
2017-09-07T08:23:39.655Z,235
2017-09-07T08:24:39.520Z,210
2017-09-07T08:25:39.810Z,255
2017-09-07T08:26:39.829Z,350
2017-09-07T08:27:39.559Z,285
2017-09-07T08:28:39.162Z,285
2017-09-07T08:29:39.745Z,375
2017-09-07T08:30:39.478Z,710
2017-09-07T08:31:39.107Z,565
2017-09-07T08:32:39.401Z,370
2017-09-07T08:33:39.734Z,380
2017-09-07T08:34:39.671Z,455
2017-09-07T08:35:39.698Z,450
2017-09-07T08:36:39.360Z,665
2017-09-07T08:37:39.781Z,355
2017-09-07T08:38:39.304Z,295
2017-09-07T08:39:38.652Z,215
2017-09-07T08:40:39.372Z,170
2017-09-07T08:41:39.319Z,160
2017-09-07T08:42:39.336Z,145
2017-09-07T08:43:39.649Z,135
2017-09-07T08:44:39.259Z,135
2017-09-07T08:45:39.283Z,135
2017-09-07T08:46:38.893Z,140
2017-09-07T08:47:39.164Z,140
2017-09-07T08:48:39.148Z,135
2017-09-07T08:49:39.456Z,140
2017-09-07T08:50:39.457Z,140
2017-09-07T08:51:38.807Z,145
2017-09-07T08:52:39.081Z,145
2017-09-07T08:53:39.388Z,140
2017-09-07T08:54:38.475Z,145
2017-09-07T08:55:38.739Z,150
2017-09-07T08:56:39.138Z,155
2017-09-07T08:57:39.054Z,160
2017-09-07T08:58:38.999Z,165
2017-09-07T08:59:39.290Z,170
2017-09-07T09:00:38.978Z,170
2017-09-07T09:01:39.039Z,180
2017-09-07T09:02:38.955Z,195
2017-09-07T09:03:39.262Z,245
2017-09-07T09:04:38.604Z,295
2017-09-07T09:05:38.595Z,285
2017-09-07T09:06:38.584Z,405
2017-09-07T09:07:38.583Z,395
2017-09-07T09:08:38.646Z,480
2017-09-07T09:09:39.219Z,1210
2017-09-07T09:10:38.621Z,490
2017-09-07T09:11:38.829Z,415
2017-09-07T09:12:38.817Z,490
2017-09-07T09:13:38.787Z,475
2017-09-07T09:14:38.761Z,610
2017-09-07T09:15:38.772Z,560
2017-09-07T09:16:38.771Z,515
2017-09-07T09:17:38.467Z,770
2017-09-07T09:18:38.808Z,770
2017-09-07T09:19:38.418Z,1015
2017-09-07T09:20:38.999Z,560
2017-09-07T09:21:38.699Z,705
2017-09-07T09:22:38.397Z,855
2017-09-07T09:23:38.409Z,640
2017-09-07T09:24:38.359Z,420
2017-09-07T09:25:38.631Z,895
2017-09-07T09:26:38.651Z,440
2017-09-07T09:27:38.290Z,430
2017-09-07T09:28:38.589Z,420
2017-09-07T09:29:38.582Z,400
2017-09-07T09:30:38.897Z,300
2017-09-07T09:31:38.597Z,365
2017-09-07T09:32:38.543Z,300
2017-09-07T09:33:38.857Z,370
2017-09-07T09:34:38.646Z,320
2017-09-07T09:35:38.831Z,315
2017-09-07T09:36:38.538Z,335
2017-09-07T09:37:38.551Z,385
2017-09-07T09:38:38.483Z,610
2017-09-07T09:39:38.150Z,755
2017-09-07T09:40:38.147Z,340
2017-09-07T09:41:38.508Z,620
2017-09-07T09:42:38.170Z,255
2017-09-07T09:43:38.909Z,225
2017-09-07T09:44:38.124Z,200
2017-09-07T09:45:38.742Z,195
2017-09-07T09:46:38.427Z,250
2017-09-07T09:47:38.399Z,195
2017-09-07T09:48:38.393Z,305
2017-09-07T09:49:38.726Z,900
2017-09-07T09:50:38.639Z,235
2017-09-07T09:51:38.645Z,240
2017-09-07T09:52:38.310Z,325
2017-09-07T09:53:38.659Z,550
2017-09-07T09:54:38.293Z,440
2017-09-07T09:55:38.349Z,360
2017-09-07T09:56:38.602Z,500
2017-09-07T09:57:38.673Z,255
2017-09-07T09:58:38.303Z,190
2017-09-07T09:59:38.243Z,150
2017-09-07T10:00:38.592Z,125
2017-09-07T10:01:38.550Z,115
2017-09-07T10:02:38.209Z,105
2017-09-07T10:03:38.197Z,105
2017-09-07T10:04:38.526Z,105
2017-09-07T10:05:38.492Z,100
2017-09-07T10:06:38.507Z,100
2017-09-07T10:07:38.167Z,100
2017-09-07T10:08:38.141Z,105
2017-09-07T10:09:37.819Z,135
2017-09-07T10:10:38.502Z,110
2017-09-07T10:11:38.427Z,100
2017-09-07T10:12:38.468Z,90
2017-09-07T10:13:38.068Z,85
2017-09-07T10:14:37.725Z,85
2017-09-07T10:15:38.359Z,85
2017-09-07T10:16:38.049Z,95
2017-09-07T10:17:38.018Z,105
2017-09-07T10:18:37.998Z,110
2017-09-07T10:19:38.300Z,120
2017-09-07T10:20:38.295Z,125
2017-09-07T10:21:37.988Z,130
2017-09-07T10:22:38.310Z,135
2017-09-07T10:23:37.938Z,150
2017-09-07T10:24:37.912Z,155
2017-09-07T10:25:38.241Z,165
2017-09-07T10:26:37.880Z,175
2017-09-07T10:27:38.190Z,190
2017-09-07T10:28:38.216Z,195
2017-09-07T10:29:37.848Z,190
2017-09-07T10:30:37.841Z,185
2017-09-07T10:31:37.827Z,175
2017-09-07T10:32:38.122Z,165
2017-09-07T10:33:38.108Z,150
2017-09-07T10:34:37.781Z,130
2017-09-07T10:35:37.791Z,115
2017-09-07T10:36:38.063Z,105
2017-09-07T10:37:38.077Z,90
2017-09-07T10:38:38.026Z,85
2017-09-07T10:39:38.027Z,85
2017-09-07T10:40:38.029Z,85
2017-09-07T10:41:38.000Z,85
2017-09-07T10:42:38.005Z,85
2017-09-07T10:43:37.960Z,90
2017-09-07T10:44:37.965Z,95
2017-09-07T10:45:37.623Z,90
2017-09-07T10:46:37.924Z,90
2017-09-07T10:47:37.580Z,85
2017-09-07T10:48:37.887Z,80
2017-09-07T10:49:37.256Z,80
2017-09-07T10:50:37.562Z,75
2017-09-07T10:51:37.296Z,75
2017-09-07T10:52:36.892Z,75
2017-09-07T10:53:37.816Z,70
2017-09-07T10:54:37.482Z,65
2017-09-07T10:55:37.163Z,60
2017-09-07T10:56:37.153Z,55
2017-09-07T10:57:37.459Z,55
2017-09-07T10:58:37.169Z,50
2017-09-07T10:59:37.728Z,50
2017-09-07T11:00:36.577Z,50
2017-09-07T11:01:37.090Z,50
2017-09-07T11:02:37.364Z,50
2017-09-07T11:03:37.699Z,55
2017-09-07T11:04:37.330Z,55
2017-09-07T11:05:37.698Z,55
2017-09-07T11:06:37.310Z,60
2017-09-07T11:07:37.332Z,60
2017-09-07T11:08:37.681Z,65
2017-09-07T11:09:36.958Z,65
2017-09-07T11:10:37.549Z,65
2017-09-07T11:11:36.927Z,65
2017-09-07T11:12:37.589Z,70
2017-09-07T11:13:37.283Z,75
2017-09-07T11:14:37.212Z,80
2017-09-07T11:15:37.270Z,85
2017-09-07T11:16:37.247Z,95
2017-09-07T11:17:37.485Z,100
2017-09-07T11:18:37.431Z,100
2017-09-07T11:19:37.544Z,110
2017-09-07T11:20:37.498Z,115
2017-09-07T11:21:37.095Z,120
2017-09-07T11:22:36.780Z,120
2017-09-07T11:23:36.428Z,125
2017-09-07T11:24:37.108Z,130
2017-09-07T11:25:37.427Z,135
2017-09-07T11:26:37.028Z,135
2017-09-07T11:27:37.007Z,150
2017-09-07T11:28:36.986Z,175
2017-09-07T11:29:37.004Z,230
2017-09-07T11:30:36.327Z,250
2017-09-07T11:31:37.323Z,220
2017-09-07T11:32:36.957Z,225
2017-09-07T11:33:36.593Z,245
2017-09-07T11:34:36.902Z,230
2017-09-07T11:35:37.223Z,235
2017-09-07T11:36:36.237Z,235
2017-09-07T11:37:37.204Z,260
2017-09-07T11:38:37.175Z,245
2017-09-07T11:39:36.518Z,280
2017-09-07T11:40:36.849Z,300
2017-09-07T11:41:36.790Z,315
2017-09-07T11:42:36.790Z,345
2017-09-07T11:43:36.268Z,355
2017-09-07T11:44:36.434Z,360
2017-09-07T11:45:36.434Z,375
2017-09-07T11:46:37.051Z,360
2017-09-07T11:47:37.072Z,360
2017-09-07T11:48:36.387Z,275
2017-09-07T11:49:36.996Z,225
2017-09-07T11:50:36.673Z,180
2017-09-07T11:51:36.361Z,165
2017-09-07T11:52:36.666Z,155
2017-09-07T11:53:36.633Z,165
2017-09-07T11:54:36.630Z,185
2017-09-07T11:55:36.604Z,210
2017-09-07T11:56:36.606Z,235
2017-09-07T11:57:36.287Z,255
2017-09-07T11:58:36.298Z,280
2017-09-07T11:59:36.569Z,300
2017-09-07T12:00:36.541Z,305
2017-09-07T12:01:36.541Z,300
2017-09-07T12:02:36.509Z,295
2017-09-07T12:03:36.197Z,315
2017-09-07T12:04:36.208Z,265
2017-09-07T12:05:36.500Z,250
2017-09-07T12:06:36.101Z,285
2017-09-07T12:07:36.136Z,255
2017-09-07T12:08:36.788Z,220
2017-09-07T12:09:36.142Z,215
2017-09-07T12:10:36.450Z,205
2017-09-07T12:11:36.464Z,195
2017-09-07T12:12:36.120Z,180
2017-09-07T12:13:36.089Z,165
2017-09-07T12:14:35.750Z,155
2017-09-07T12:15:36.090Z,140
2017-09-07T12:16:36.705Z,135
2017-09-07T12:17:36.417Z,120
2017-09-07T12:18:36.677Z,115
2017-09-07T12:19:36.396Z,110
2017-09-07T12:20:36.640Z,105
2017-09-07T12:21:36.023Z,95
2017-09-07T12:22:35.972Z,90
2017-09-07T12:23:36.607Z,80
2017-09-07T12:24:35.998Z,75
2017-09-07T12:25:35.640Z,70
2017-09-07T12:26:36.242Z,70
2017-09-07T12:27:36.277Z,70
2017-09-07T12:28:36.218Z,65
2017-09-07T12:29:35.889Z,70
2017-09-07T12:30:36.420Z,70
2017-09-07T12:31:36.488Z,70
2017-09-07T12:32:35.940Z,70
2017-09-07T12:33:36.149Z,70
2017-09-07T12:34:36.581Z,70
2017-09-07T12:35:35.802Z,70
2017-09-07T12:36:36.135Z,70
2017-09-07T12:37:36.103Z,70
2017-09-07T12:38:36.200Z,70
2017-09-07T12:39:36.091Z,70
2017-09-07T12:40:36.075Z,70
2017-09-07T12:41:36.053Z,75
2017-09-07T12:42:35.812Z,80
2017-09-07T12:43:36.370Z,85
2017-09-07T12:44:36.007Z,95
2017-09-07T12:45:36.573Z,100
2017-09-07T12:46:36.519Z,115
2017-09-07T12:47:35.978Z,130
2017-09-07T12:48:36.043Z,160
2017-09-07T12:49:36.258Z,185
2017-09-07T12:50:35.954Z,160
2017-09-07T12:51:35.928Z,140
2017-09-07T12:52:36.237Z,135
2017-09-07T12:53:35.924Z,125
2017-09-07T12:54:35.924Z,125
2017-09-07T12:55:36.205Z,125
2017-09-07T12:56:35.851Z,120
2017-09-07T12:57:35.921Z,125
2017-09-07T12:58:36.110Z,180
2017-09-07T12:59:35.481Z,115
2017-09-07T13:00:35.810Z,110
2017-09-07T13:01:36.087Z,105
2017-09-07T13:02:36.068Z,105
2017-09-07T13:03:36.070Z,110
2017-09-07T13:04:36.036Z,115
2017-09-07T13:05:36.071Z,185
2017-09-07T13:06:36.071Z,205
2017-09-07T13:07:35.669Z,170
2017-09-07T13:08:35.995Z,240
2017-09-07T13:09:35.999Z,250
2017-09-07T13:10:35.948Z,250
2017-09-07T13:11:35.954Z,240
2017-09-07T13:12:35.308Z,210
2017-09-07T13:13:35.927Z,175
2017-09-07T13:14:35.602Z,195
2017-09-07T13:15:35.886Z,185
2017-09-07T13:16:35.569Z,145
2017-09-07T13:17:35.569Z,140
2017-09-07T13:18:35.581Z,140
2017-09-07T13:19:35.851Z,205
2017-09-07T13:20:35.227Z,160
2017-09-07T13:21:35.568Z,205
2017-09-07T13:22:35.498Z,205
2017-09-07T13:23:34.849Z,205
2017-09-07T13:24:35.265Z,195
2017-09-07T13:25:35.769Z,210
2017-09-07T13:26:34.807Z,215
2017-09-07T13:27:35.529Z,215
2017-09-07T13:28:35.739Z,220
2017-09-07T13:29:35.529Z,225
2017-09-07T13:30:35.757Z,230
2017-09-07T13:31:35.060Z,230
2017-09-07T13:32:35.668Z,230
2017-09-07T13:33:35.661Z,230
2017-09-07T13:34:35.319Z,225
2017-09-07T13:35:35.636Z,225
2017-09-07T13:36:35.886Z,220
2017-09-07T13:37:35.310Z,210
2017-09-07T13:38:35.610Z,140
2017-09-07T13:39:35.583Z,130
2017-09-07T13:40:35.835Z,125
2017-09-07T13:41:35.302Z,120
2017-09-07T13:42:35.570Z,115
2017-09-07T13:43:35.557Z,115
2017-09-07T13:44:35.531Z,120
2017-09-07T13:45:35.529Z,120
2017-09-07T13:46:34.582Z,130
2017-09-07T13:47:34.879Z,170
2017-09-07T13:48:34.870Z,180
2017-09-07T13:49:35.620Z,195
2017-09-07T13:50:35.245Z,175
2017-09-07T13:51:35.468Z,175
2017-09-07T13:52:35.135Z,165
2017-09-07T13:53:34.789Z,170
2017-09-07T13:54:35.308Z,190
2017-09-07T13:55:35.527Z,180
2017-09-07T13:56:35.108Z,180
2017-09-07T13:57:35.070Z,170
2017-09-07T13:58:34.740Z,160
2017-09-07T13:59:35.017Z,160
2017-09-07T14:00:35.329Z,190
2017-09-07T14:01:35.005Z,175
2017-09-07T14:02:35.367Z,160
2017-09-07T14:03:35.394Z,155
2017-09-07T14:04:34.990Z,155
2017-09-07T14:05:34.638Z,185
2017-09-07T14:06:34.629Z,160
2017-09-07T14:07:35.274Z,145
2017-09-07T14:08:34.608Z,145
2017-09-07T14:09:35.136Z,160
2017-09-07T14:10:34.278Z,165
2017-09-07T14:11:35.221Z,145
2017-09-07T14:12:34.579Z,140
2017-09-07T14:13:34.868Z,145
2017-09-07T14:14:34.566Z,145
2017-09-07T14:15:34.860Z,155